Pagrindinis puslapis
METAR-TAF:

METAR-TAF

Oro uostai :

Bardufoss, Norvegija

platuma: 69-04N, ilguma: 018-32E, Aukštis: 7 m

Dabartinis oras

Ataskaita buvo paskelbta 15 minutes, ne 11:50 UTC
Vėjas 2 kt nuo kintamojo kryptimis
Temperatūra 13°C
Drėgmė 72%
Slėgis 1017 hPa
Matomumas 10 km arba daugiau
Mažai debesys ne aukštis 2500 ft
Su prošvaistėmis ne aukštis 3500 ft

METAR: ENDU 221150Z VRB02KT 9999 FEW025 BKN035 13/08 Q1017 NOSIG RMK WIND 1100FT VRB03KT WIND 2200FT 23008KT

Laikas: 14:05 (12:05 UTC)

Prognozė

Prognozė galioja nuo 22 metu 12 UTC su 23 metu 12 UTC
Vėjas 5 kt nuo kintamojo kryptimis
Matomumas 10 km arba daugiau
Mažai debesys ne aukštis 1000 ft
Su prošvaistėmis ne aukštis 3000 ft
Tikimybė 30% :
Laikinai
nuo 23 metu 00 UTC su 23 metu 06 UTC
Matomumas: 1200 m
Dalies įtraukti į rūko

TAF: ENDU 2212/2312 VRB05KT 9999 FEW010 BKN030 PROB30 TEMPO 2300/2306 1200 PRFG

Orai ataskaitas ir orų prognozės (METAR, TAF).

turimą stotys yra geltonos ir raudonos taškus žemėlapyje.

Perkelti pele per norėdami pamatyti stoties vardą.

Tada spustelėkite, norėdami matyti oro stebėjimo ir prognozės.

Norėdami pakeisti žemėlapį: spustelėkite ant žalios mygtukų su juodo kryžiaus žemyn,; žalią mygtuką su brūkšneliu, jei norite nutolinti; arba žalių rodyklių gretimoms žemėlapius.


METAR-TAF: